createdAt,value
2019-03-12T00:02:09.130Z,101392.36
2019-03-12T00:04:35.867Z,101392.36
2019-03-12T00:07:02.601Z,101398.53
2019-03-12T00:09:29.333Z,101401.70
2019-03-12T00:11:56.110Z,101393.91
2019-03-12T00:14:22.841Z,101382.06
2019-03-12T00:16:49.565Z,101393.80
2019-03-12T00:19:16.320Z,101397.75
2019-03-12T00:21:43.034Z,101398.17
2019-03-12T00:24:09.769Z,101396.59
2019-03-12T00:26:36.646Z,101401.70
2019-03-12T00:29:03.383Z,101406.20
2019-03-12T00:31:30.111Z,101406.23
2019-03-12T00:33:56.842Z,101409.34
2019-03-12T00:36:23.558Z,101406.95
2019-03-12T00:38:50.295Z,101407.67
2019-03-12T00:41:19.933Z,101412.02
2019-03-12T00:43:43.758Z,101412.70
2019-03-12T00:46:10.470Z,101415.20
2019-03-12T00:48:37.206Z,101416.58
2019-03-12T00:51:04.060Z,101417.70
2019-03-12T00:53:30.797Z,101419.55
2019-03-12T00:55:57.527Z,101421.44
2019-03-12T00:58:24.270Z,101421.39
2019-03-12T01:00:51.005Z,101420.90
2019-03-12T01:03:17.752Z,101423.16
2019-03-12T01:05:44.471Z,101422.70
2019-03-12T01:08:11.206Z,101429.23
2019-03-12T01:10:37.939Z,101436.23
2019-03-12T01:13:13.622Z,101430.75
2019-03-12T01:15:40.362Z,101442.63
2019-03-12T01:18:07.081Z,101447.34
2019-03-12T01:20:33.834Z,101446.53
2019-03-12T01:23:00.574Z,101447.20
2019-03-12T01:25:27.338Z,101449.83
2019-03-12T01:27:54.062Z,101449.48
2019-03-12T01:30:21.605Z,101455.49
2019-03-12T01:32:48.314Z,101450.35
2019-03-12T01:35:15.038Z,101436.98
2019-03-12T01:37:41.753Z,101440.35
2019-03-12T01:40:09.482Z,101445.48
2019-03-12T01:42:36.209Z,101437.58
2019-03-12T01:45:02.941Z,101442.27
2019-03-12T01:47:29.658Z,101450.62
2019-03-12T01:49:56.398Z,101452.88
2019-03-12T01:52:23.134Z,101455.98
2019-03-12T01:54:49.878Z,101454.29
2019-03-12T01:57:16.595Z,101447.61
2019-03-12T01:59:43.323Z,101455.65
2019-03-12T02:02:10.041Z,101458.24
2019-03-12T02:04:36.778Z,101455.67
2019-03-12T02:07:03.517Z,101455.44
2019-03-12T02:09:30.251Z,101450.05
2019-03-12T02:11:56.966Z,101451.51
2019-03-12T02:14:25.469Z,101457.88
2019-03-12T02:16:52.181Z,101458.77
2019-03-12T02:19:18.921Z,101452.50
2019-03-12T02:21:45.643Z,101450.75
2019-03-12T02:24:12.382Z,101445.67
2019-03-12T02:26:39.097Z,101440.73
2019-03-12T02:29:05.830Z,101431.16
2019-03-12T02:31:32.566Z,101428.66
2019-03-12T02:33:59.276Z,101420.94
2019-03-12T02:36:25.999Z,101421.65
2019-03-12T02:38:52.783Z,101425.87
2019-03-12T02:41:19.526Z,101421.27
2019-03-12T02:43:46.265Z,101423.83
2019-03-12T02:46:12.981Z,101417.03
2019-03-12T02:48:39.710Z,101427.82
2019-03-12T02:51:06.438Z,101421.72
2019-03-12T02:53:33.170Z,101425.17
2019-03-12T02:56:01.752Z,101425.95
2019-03-12T02:58:26.751Z,101422.38
2019-03-12T03:00:53.484Z,101418.52
2019-03-12T03:03:20.202Z,101417.05
2019-03-12T03:05:53.759Z,101407.03
2019-03-12T03:08:23.554Z,101410.73
2019-03-12T03:10:50.297Z,101420.81
2019-03-12T03:13:17.012Z,101423.08
2019-03-12T03:15:44.219Z,101420.00
2019-03-12T03:18:10.926Z,101410.90
2019-03-12T03:20:37.682Z,101416.52
2019-03-12T03:23:04.522Z,101414.52
2019-03-12T03:25:31.270Z,101418.09
2019-03-12T03:27:57.858Z,101424.83
2019-03-12T03:30:24.637Z,101423.61
2019-03-12T03:32:51.332Z,101420.42
2019-03-12T03:35:18.071Z,101413.02
2019-03-12T03:37:44.781Z,101423.02
2019-03-12T03:40:13.374Z,101413.58
2019-03-12T03:42:40.114Z,101397.84
2019-03-12T03:45:06.921Z,101407.68
2019-03-12T03:47:33.695Z,101395.43
2019-03-12T03:50:00.474Z,101397.06
2019-03-12T03:52:27.161Z,101391.58
2019-03-12T03:54:53.923Z,101391.47
2019-03-12T03:57:20.658Z,101386.41
2019-03-12T03:59:47.408Z,101385.55
2019-03-12T04:02:14.153Z,101373.82
2019-03-12T04:04:40.886Z,101376.67
2019-03-12T04:07:07.636Z,101373.18
2019-03-12T04:09:34.355Z,101374.95
2019-03-12T04:12:01.122Z,101366.53
2019-03-12T04:14:27.864Z,101366.39
2019-03-12T04:16:54.598Z,101372.18
2019-03-12T04:19:21.318Z,101369.55
2019-03-12T04:21:48.072Z,101368.59
2019-03-12T04:24:14.810Z,101371.41
2019-03-12T04:26:41.537Z,101358.75
2019-03-12T04:29:08.267Z,101369.11
2019-03-12T04:31:35.006Z,101363.95
2019-03-12T04:34:20.354Z,101365.67
2019-03-12T04:36:48.443Z,101359.33
2019-03-12T04:39:15.186Z,101353.61
2019-03-12T04:41:41.953Z,101348.45
2019-03-12T04:44:08.658Z,101348.44
2019-03-12T04:46:35.431Z,101348.55
2019-03-12T04:49:02.170Z,101343.80
2019-03-12T04:51:28.922Z,101345.16
2019-03-12T04:53:55.649Z,101343.24
2019-03-12T04:56:22.395Z,101339.39
2019-03-12T04:58:58.842Z,101346.81
2019-03-12T05:01:25.571Z,101340.16
2019-03-12T05:03:52.298Z,101347.13
2019-03-12T05:06:19.987Z,101337.38
2019-03-12T05:08:45.812Z,101336.62
2019-03-12T05:11:12.618Z,101331.69
2019-03-12T05:13:39.346Z,101328.34
2019-03-12T05:16:06.115Z,101329.36
2019-03-12T05:18:32.871Z,101326.37
2019-03-12T05:20:59.621Z,101320.22
2019-03-12T05:23:26.364Z,101315.86
2019-03-12T05:25:53.115Z,101305.48
2019-03-12T05:28:19.894Z,101305.36
2019-03-12T05:30:46.651Z,101309.89
2019-03-12T05:33:13.381Z,101306.01
2019-03-12T05:35:40.142Z,101305.00
2019-03-12T05:38:06.899Z,101300.09
2019-03-12T05:40:33.618Z,101296.38
2019-03-12T05:43:00.362Z,101302.64
2019-03-12T05:45:27.126Z,101307.74
2019-03-12T05:47:53.866Z,101312.36
2019-03-12T05:50:20.603Z,101310.05
2019-03-12T05:52:49.048Z,101310.11
2019-03-12T05:55:14.137Z,101319.72
2019-03-12T05:57:40.930Z,101307.58
2019-03-12T06:00:08.922Z,101307.20
2019-03-12T06:02:35.669Z,101299.49
2019-03-12T06:05:02.578Z,101296.11
2019-03-12T06:07:29.300Z,101294.28
2019-03-12T06:09:56.034Z,101285.72
2019-03-12T06:12:22.774Z,101279.99
2019-03-12T06:14:49.522Z,101281.17
2019-03-12T06:17:16.277Z,101273.57
2019-03-12T06:19:43.031Z,101270.85
2019-03-12T06:22:11.734Z,101263.50
2019-03-12T06:24:36.486Z,101266.00
2019-03-12T06:27:03.246Z,101263.36
2019-03-12T06:29:29.958Z,101268.89
2019-03-12T06:32:12.980Z,101261.56
2019-03-12T06:34:48.777Z,101255.54
2019-03-12T06:37:30.374Z,101260.95
2019-03-12T06:40:18.659Z,101258.16
2019-03-12T06:42:49.785Z,101250.01
2019-03-12T06:45:22.205Z,101248.91
2019-03-12T06:47:59.702Z,101245.68
2019-03-12T06:50:35.014Z,101240.95
2019-03-12T06:53:24.190Z,101229.86
2019-03-12T06:56:16.530Z,101231.08
2019-03-12T06:58:48.982Z,101232.81
2019-03-12T07:01:36.269Z,101225.16
2019-03-12T07:04:08.514Z,101222.45
2019-03-12T07:06:55.810Z,101210.59
2019-03-12T07:09:34.050Z,101209.53
2019-03-12T07:12:05.714Z,101193.36
2019-03-12T07:14:36.911Z,101193.53
2019-03-12T07:17:10.275Z,101191.87
2019-03-12T07:19:56.601Z,101187.87
2019-03-12T07:22:31.181Z,101180.19
2019-03-12T07:25:05.785Z,101186.66
2019-03-12T07:27:37.874Z,101179.19
2019-03-12T07:30:13.063Z,101179.56
2019-03-12T07:32:44.345Z,101179.02
2019-03-12T07:35:16.782Z,101179.72
2019-03-12T07:37:49.962Z,101177.02
2019-03-12T07:40:27.302Z,101178.17
2019-03-12T07:43:03.249Z,101174.55
2019-03-12T07:45:51.409Z,101174.77
2019-03-12T07:48:38.494Z,101165.36
2019-03-12T07:51:17.265Z,101157.52
2019-03-12T07:53:59.482Z,101147.06
2019-03-12T07:56:27.984Z,101144.03
2019-03-12T07:59:09.207Z,101143.53
2019-03-12T08:01:45.485Z,101141.55
2019-03-12T08:04:20.998Z,101137.59
2019-03-12T08:06:53.597Z,101140.83
2019-03-12T08:09:40.879Z,101140.62
2019-03-12T08:12:14.437Z,101137.27
2019-03-12T08:14:50.968Z,101129.83
2019-03-12T08:17:31.850Z,101118.59
2019-03-12T08:20:04.426Z,101112.87
2019-03-12T08:22:37.417Z,101104.43
2019-03-12T08:25:26.816Z,101091.17
2019-03-12T08:28:02.179Z,101088.95
2019-03-12T08:30:49.402Z,101083.70
2019-03-12T08:33:26.765Z,101094.53
2019-03-12T08:36:00.119Z,101088.42
2019-03-12T08:38:39.986Z,101079.51
2019-03-12T08:41:12.868Z,101078.30
2019-03-12T08:43:50.032Z,101071.95
2019-03-12T08:46:28.469Z,101058.38
2019-03-12T08:49:16.805Z,101045.66
2019-03-12T08:51:49.411Z,101037.94
2019-03-12T08:54:28.315Z,101031.72
2019-03-12T08:57:14.669Z,101032.44
2019-03-12T09:00:02.162Z,101029.17
2019-03-12T09:02:53.492Z,101018.01
2019-03-12T09:05:34.571Z,101020.02
2019-03-12T09:08:11.718Z,101016.19
2019-03-12T09:10:46.524Z,101009.30
2019-03-12T09:13:33.894Z,101002.20
2019-03-12T09:16:24.062Z,100992.56
2019-03-12T09:19:05.446Z,100983.61
2019-03-12T09:21:40.063Z,100970.77
2019-03-12T09:24:13.854Z,100973.70
2019-03-12T09:26:54.478Z,100969.82
2019-03-12T09:29:29.509Z,100956.59
2019-03-12T09:32:05.125Z,100949.36
2019-03-12T09:34:39.120Z,100951.42
2019-03-12T09:37:11.498Z,100936.92
2019-03-12T09:39:59.857Z,100936.44
2019-03-12T09:42:46.994Z,100930.50
2019-03-12T09:45:28.437Z,100919.91
2019-03-12T09:48:02.975Z,100919.63
2019-03-12T09:52:08.075Z,100907.43
2019-03-12T09:54:55.385Z,100901.37
2019-03-12T09:57:44.594Z,100905.77
2019-03-12T10:00:17.294Z,100888.59
2019-03-12T10:02:52.447Z,100883.17
2019-03-12T10:05:26.214Z,100872.69
2019-03-12T10:08:08.942Z,100869.38
2019-03-12T10:10:41.661Z,100862.72
2019-03-12T10:13:26.954Z,100846.73
2019-03-12T10:16:13.300Z,100836.22
2019-03-12T10:18:52.046Z,100844.39
2019-03-12T10:21:32.998Z,100850.27
2019-03-12T10:24:08.241Z,100836.70
2019-03-12T10:26:44.682Z,100833.17
2019-03-12T10:29:19.836Z,100825.90
2019-03-12T10:32:09.177Z,100828.97
2019-03-12T10:34:46.374Z,100815.34
2019-03-12T10:37:23.151Z,100807.95
2019-03-12T10:39:59.309Z,100811.67
2019-03-12T10:42:33.133Z,100813.80
2019-03-12T10:45:04.636Z,100811.65
2019-03-12T10:47:32.126Z,100808.88
2019-03-12T10:49:58.926Z,100802.63
2019-03-12T10:52:25.666Z,100792.52
2019-03-12T10:54:52.510Z,100789.70
2019-03-12T10:57:21.474Z,100786.55
2019-03-12T10:59:45.982Z,100772.04
2019-03-12T11:02:12.698Z,100761.09
2019-03-12T11:04:39.442Z,100748.08
2019-03-12T11:07:15.868Z,100733.43
2019-03-12T11:09:32.913Z,100730.38
2019-03-12T11:11:59.630Z,100739.45
2019-03-12T11:14:26.380Z,100737.16
2019-03-12T11:16:53.094Z,100721.05
2019-03-12T11:19:19.835Z,100716.84
2019-03-12T11:21:46.546Z,100707.45
2019-03-12T11:24:13.291Z,100701.48
2019-03-12T11:26:40.022Z,100701.38
2019-03-12T11:29:06.762Z,100699.17
2019-03-12T11:31:33.486Z,100691.51
2019-03-12T11:34:00.230Z,100669.91
2019-03-12T11:36:26.993Z,100665.38
2019-03-12T11:38:53.912Z,100661.57
2019-03-12T11:41:20.460Z,100650.75
2019-03-12T11:43:47.168Z,100635.69
2019-03-12T11:46:13.874Z,100611.05
2019-03-12T11:48:40.615Z,100613.83
2019-03-12T11:51:07.388Z,100601.23
2019-03-12T11:53:34.113Z,100586.88
2019-03-12T11:56:01.061Z,100578.64
2019-03-12T11:58:27.762Z,100575.36
2019-03-12T12:00:56.585Z,100556.30
2019-03-12T12:03:23.266Z,100558.00
2019-03-12T12:05:50.003Z,100549.08
2019-03-12T12:08:16.753Z,100546.24
2019-03-12T12:10:43.456Z,100538.30
2019-03-12T12:13:10.184Z,100533.79
2019-03-12T12:15:36.990Z,100527.60
2019-03-12T12:18:03.885Z,100524.05
2019-03-12T12:20:30.679Z,100524.77
2019-03-12T12:22:57.382Z,100524.41
2019-03-12T12:25:24.121Z,100515.09
2019-03-12T12:27:50.867Z,100504.58
2019-03-12T12:30:17.671Z,100491.66
2019-03-12T12:32:44.382Z,100488.37
2019-03-12T12:35:11.153Z,100472.59
2019-03-12T12:37:37.870Z,100465.83
2019-03-12T12:40:05.678Z,100456.16
2019-03-12T12:42:32.433Z,100448.20
2019-03-12T12:44:59.170Z,100437.95
2019-03-12T12:47:25.899Z,100442.98
2019-03-12T12:49:52.814Z,100427.54
2019-03-12T12:52:19.531Z,100421.44
2019-03-12T12:54:46.370Z,100402.19
2019-03-12T12:57:13.094Z,100402.79
2019-03-12T12:59:39.835Z,100388.36
2019-03-12T13:02:06.654Z,100380.19
2019-03-12T13:04:33.386Z,100371.30
2019-03-12T13:07:00.108Z,100360.42
2019-03-12T13:09:26.890Z,100354.30
2019-03-12T13:11:53.654Z,100343.66
2019-03-12T13:14:20.465Z,100349.51
2019-03-12T13:16:47.322Z,100347.47
2019-03-12T13:19:14.050Z,100319.55
2019-03-12T13:21:40.802Z,100311.77
2019-03-12T13:24:07.531Z,100309.95
2019-03-12T13:26:34.299Z,100302.44
2019-03-12T13:29:01.018Z,100293.44
2019-03-12T13:31:27.749Z,100289.98
2019-03-12T13:33:54.470Z,100268.88
2019-03-12T13:36:21.202Z,100269.98
2019-03-12T13:38:48.689Z,100252.31
2019-03-12T13:41:15.111Z,100247.35
2019-03-12T13:43:41.636Z,100225.65
2019-03-12T13:46:08.400Z,100214.89
2019-03-12T13:48:35.138Z,100210.58
2019-03-12T13:51:01.879Z,100202.30
2019-03-12T13:53:28.654Z,100197.19
2019-03-12T13:55:55.427Z,100189.53
2019-03-12T13:58:22.121Z,100174.22
2019-03-12T14:00:48.963Z,100179.14
2019-03-12T14:03:15.578Z,100162.74
2019-03-12T14:05:42.314Z,100150.25
2019-03-12T14:08:09.029Z,100146.48
2019-03-12T14:10:35.761Z,100137.78
2019-03-12T14:13:02.462Z,100133.16
2019-03-12T14:15:29.238Z,100118.91
2019-03-12T14:17:55.966Z,100105.94
2019-03-12T14:20:40.991Z,100093.77
2019-03-12T14:23:07.741Z,100079.67
2019-03-12T14:25:34.494Z,100077.48
2019-03-12T14:28:01.210Z,100062.49
2019-03-12T14:30:27.952Z,100049.70
2019-03-12T14:32:54.682Z,100040.04
2019-03-12T14:35:21.422Z,100040.10
2019-03-12T14:37:48.146Z,100020.10
2019-03-12T14:40:14.862Z,100018.40
2019-03-12T14:42:41.614Z,100007.23
2019-03-12T14:45:09.978Z,99990.81
2019-03-12T14:47:36.712Z,100006.89
2019-03-12T14:50:03.718Z,99985.89
2019-03-12T14:52:34.518Z,99978.87
2019-03-12T14:55:01.234Z,99967.15
2019-03-12T14:57:28.025Z,99972.13
2019-03-12T14:59:54.859Z,99960.69
2019-03-12T15:02:21.813Z,99947.98
2019-03-12T15:04:48.552Z,99942.25
2019-03-12T15:07:15.286Z,99931.85
2019-03-12T15:09:42.005Z,99918.05
2019-03-12T15:12:11.625Z,99912.87
2019-03-12T15:14:35.501Z,99905.53
2019-03-12T15:17:02.239Z,99897.60
2019-03-12T15:19:28.978Z,99894.68
2019-03-12T15:21:55.712Z,99883.90
2019-03-12T15:24:22.430Z,99882.50
2019-03-12T15:26:49.219Z,99869.48
2019-03-12T15:29:15.931Z,99871.65
2019-03-12T15:31:42.702Z,99854.72
2019-03-12T15:34:09.421Z,99843.18
2019-03-12T15:36:36.164Z,99853.50
2019-03-12T15:39:04.334Z,99851.55
2019-03-12T15:41:31.094Z,99839.43
2019-03-12T15:43:57.814Z,99821.12
2019-03-12T15:46:24.542Z,99825.44
2019-03-12T15:48:51.286Z,99806.89
2019-03-12T15:51:18.067Z,99811.09
2019-03-12T15:53:44.781Z,99803.23
2019-03-12T15:56:12.707Z,99800.42
2019-03-12T15:58:39.395Z,99794.70
2019-03-12T16:01:06.142Z,99792.88
2019-03-12T16:03:32.886Z,99782.49
2019-03-12T16:05:59.619Z,99769.08
2019-03-12T16:08:26.350Z,99754.28
2019-03-12T16:10:58.073Z,99756.11
2019-03-12T16:13:19.850Z,99751.07
2019-03-12T16:15:46.584Z,99750.58
2019-03-12T16:18:14.543Z,99741.08
2019-03-12T16:20:40.034Z,99735.71
2019-03-12T16:23:06.802Z,99730.60
2019-03-12T16:25:33.524Z,99722.38
2019-03-12T16:28:00.322Z,99714.41
2019-03-12T16:30:26.994Z,99704.23
2019-03-12T16:32:53.743Z,99696.56
2019-03-12T16:35:20.471Z,99687.30
2019-03-12T16:37:47.254Z,99688.75
2019-03-12T16:40:13.934Z,99673.47
2019-03-12T16:42:40.686Z,99659.11
2019-03-12T16:45:07.765Z,99648.67
2019-03-12T16:47:34.509Z,99643.27
2019-03-12T16:50:01.234Z,99644.62
2019-03-12T16:52:27.966Z,99644.81
2019-03-12T16:54:54.678Z,99639.25
2019-03-12T16:57:21.409Z,99634.41
2019-03-12T16:59:48.185Z,99624.30
2019-03-12T17:02:14.930Z,99624.11
2019-03-12T17:04:41.642Z,99625.24
2019-03-12T17:07:08.376Z,99619.72
2019-03-12T17:09:35.110Z,99621.87
2019-03-12T17:12:01.902Z,99614.84
2019-03-12T17:14:38.339Z,99613.22
2019-03-12T17:16:55.330Z,99604.45
2019-03-12T17:19:22.067Z,99602.17
2019-03-12T17:21:48.800Z,99590.96
2019-03-12T17:24:15.526Z,99587.27
2019-03-12T17:26:42.250Z,99584.53
2019-03-12T17:29:08.990Z,99565.48
2019-03-12T17:31:35.713Z,99557.66
2019-03-12T17:34:02.465Z,99560.26
2019-03-12T17:36:29.183Z,99551.64
2019-03-12T17:38:55.907Z,99547.27
2019-03-12T17:41:22.628Z,99537.78
2019-03-12T17:43:49.365Z,99549.31
2019-03-12T17:46:16.074Z,99551.52
2019-03-12T17:48:42.806Z,99551.48
2019-03-12T17:51:09.627Z,99559.06
2019-03-12T17:53:36.388Z,99552.11
2019-03-12T17:56:03.106Z,99554.92
2019-03-12T17:58:29.842Z,99540.12
2019-03-12T18:00:56.554Z,99545.77
2019-03-12T18:03:23.282Z,99544.28
2019-03-12T18:05:50.006Z,99537.59
2019-03-12T18:08:16.817Z,99531.75
2019-03-12T18:10:43.538Z,99535.02
2019-03-12T18:13:10.346Z,99531.77
2019-03-12T18:15:37.054Z,99517.32
2019-03-12T18:18:03.882Z,99510.15
2019-03-12T18:20:30.610Z,99498.42
2019-03-12T18:22:57.363Z,99496.16
2019-03-12T18:25:25.185Z,99501.05
2019-03-12T18:27:51.961Z,99504.14
2019-03-12T18:30:18.695Z,99490.63
2019-03-12T18:32:45.406Z,99489.04
2019-03-12T18:35:12.270Z,99486.12
2019-03-12T18:37:38.986Z,99491.77
2019-03-12T18:40:07.818Z,99483.55
2019-03-12T18:42:34.526Z,99479.33
2019-03-12T18:45:01.284Z,99465.84
2019-03-12T18:47:27.995Z,99470.20
2019-03-12T18:49:55.874Z,99467.97
2019-03-12T18:52:22.593Z,99457.74
2019-03-12T18:54:49.321Z,99450.55
2019-03-12T18:57:16.054Z,99440.99
2019-03-12T18:59:42.790Z,99433.22
2019-03-12T19:02:09.517Z,99434.52
2019-03-12T19:04:36.274Z,99421.53
2019-03-12T19:07:02.998Z,99419.22
2019-03-12T19:09:29.742Z,99420.69
2019-03-12T19:11:56.457Z,99418.39
2019-03-12T19:14:23.198Z,99408.66
2019-03-12T19:16:49.943Z,99414.67
2019-03-12T19:19:16.662Z,99415.95
2019-03-12T19:21:43.370Z,99412.23
2019-03-12T19:24:10.102Z,99395.02
2019-03-12T19:26:36.842Z,99387.23
2019-03-12T19:29:03.704Z,99395.52
2019-03-12T19:31:36.634Z,99390.33
2019-03-12T19:34:07.121Z,99381.09
2019-03-12T19:36:33.841Z,99367.27
2019-03-12T19:39:00.578Z,99358.98
2019-03-12T19:41:27.298Z,99348.92
2019-03-12T19:43:54.057Z,99356.96
2019-03-12T19:46:20.766Z,99339.49
2019-03-12T19:48:47.481Z,99336.09
2019-03-12T19:51:14.214Z,99339.15
2019-03-12T19:53:40.935Z,99334.78
2019-03-12T19:56:07.694Z,99341.43
2019-03-12T19:58:34.418Z,99329.27
2019-03-12T20:01:01.155Z,99325.22
2019-03-12T20:03:27.865Z,99323.20
2019-03-12T20:05:54.621Z,99311.03
2019-03-12T20:08:21.343Z,99298.88
2019-03-12T20:10:59.034Z,99285.41
2019-03-12T20:13:54.056Z,99281.83
2019-03-12T20:16:34.987Z,99271.77
2019-03-12T20:19:18.586Z,99275.36
2019-03-12T20:22:04.985Z,99266.89
2019-03-12T20:24:52.842Z,99270.67
2019-03-12T20:27:34.820Z,99264.67
2019-03-12T20:30:45.586Z,99248.11
2019-03-12T20:33:45.783Z,99244.05
2019-03-12T20:36:24.178Z,99251.84
2019-03-12T20:39:03.049Z,99240.60
2019-03-12T20:41:55.201Z,99234.91
2019-03-12T20:44:33.739Z,99227.97
2019-03-12T20:47:31.873Z,99218.52
2019-03-12T20:50:14.506Z,99219.67
2019-03-12T20:53:02.866Z,99213.67
2019-03-12T20:55:50.278Z,99208.64
2019-03-12T20:58:28.906Z,99205.36
2019-03-12T21:01:12.666Z,99199.38
2019-03-12T21:03:56.997Z,99195.14
2019-03-12T21:07:01.931Z,99187.38
2019-03-12T21:09:50.390Z,99185.39
2019-03-12T21:12:31.941Z,99179.05
2019-03-12T21:15:11.504Z,99168.64
2019-03-12T21:17:49.777Z,99158.73
2019-03-12T21:20:49.209Z,99149.03
2019-03-12T21:23:27.103Z,99156.80
2019-03-12T21:26:10.191Z,99146.73
2019-03-12T21:28:55.921Z,99144.45
2019-03-12T21:31:22.661Z,99149.15
2019-03-12T21:33:49.383Z,99150.94
2019-03-12T21:36:16.127Z,99151.92
2019-03-12T21:38:42.842Z,99143.96
2019-03-12T21:41:09.594Z,99142.80
2019-03-12T21:43:36.318Z,99137.41
2019-03-12T21:46:03.054Z,99134.05
2019-03-12T21:48:29.777Z,99135.42
2019-03-12T21:50:56.515Z,99142.09
2019-03-12T21:53:23.246Z,99137.23
2019-03-12T21:55:49.982Z,99142.98
2019-03-12T21:58:16.706Z,99153.22
2019-03-12T22:00:43.416Z,99155.52
2019-03-12T22:03:10.162Z,99170.50
2019-03-12T22:05:36.878Z,99169.55
2019-03-12T22:08:03.652Z,99176.72
2019-03-12T22:10:30.440Z,99169.11
2019-03-12T22:12:57.181Z,99177.20
2019-03-12T22:15:23.902Z,99177.57
2019-03-12T22:17:50.642Z,99175.30
2019-03-12T22:20:17.370Z,99157.15
2019-03-12T22:22:47.886Z,99150.98
2019-03-12T22:25:14.602Z,99166.88
2019-03-12T22:27:41.400Z,99159.72
2019-03-12T22:30:11.482Z,99163.45
2019-03-12T22:32:38.278Z,99164.77
2019-03-12T22:35:05.078Z,99160.21
2019-03-12T22:37:31.821Z,99163.27
2019-03-12T22:39:58.537Z,99168.58
2019-03-12T22:42:25.277Z,99158.45
2019-03-12T22:44:51.994Z,99150.59
2019-03-12T22:47:18.806Z,99156.80
2019-03-12T22:49:45.540Z,99157.45
2019-03-12T22:52:12.286Z,99158.95
2019-03-12T22:54:39.012Z,99182.86
2019-03-12T22:57:05.773Z,99208.08
2019-03-12T22:59:32.486Z,99195.28
2019-03-12T23:01:59.239Z,99211.61
2019-03-12T23:04:25.966Z,99236.86
2019-03-12T23:06:52.718Z,99272.33
2019-03-12T23:09:19.485Z,99292.80
2019-03-12T23:11:46.228Z,99300.34
2019-03-12T23:14:12.942Z,99319.87
2019-03-12T23:16:39.673Z,99311.75
2019-03-12T23:19:06.401Z,99354.55
2019-03-12T23:21:33.133Z,99336.19
2019-03-12T23:23:59.893Z,99365.83
2019-03-12T23:26:26.645Z,99394.96
2019-03-12T23:28:53.429Z,99404.52
2019-03-12T23:31:20.183Z,99414.02
2019-03-12T23:33:46.951Z,99419.78
2019-03-12T23:36:13.686Z,99425.70
2019-03-12T23:38:40.432Z,99436.34
2019-03-12T23:41:07.186Z,99472.20
2019-03-12T23:43:33.965Z,99480.13
2019-03-12T23:46:00.763Z,99471.73
2019-03-12T23:48:27.565Z,99483.31
2019-03-12T23:50:54.294Z,99475.94
2019-03-12T23:53:21.054Z,99501.29
2019-03-12T23:55:47.814Z,99512.09
2019-03-12T23:58:14.562Z,99525.76
